createdAt,value
2019-01-23T00:00:05.356Z,1003.67
2019-01-23T00:01:05.434Z,1003.65
2019-01-23T00:02:06.019Z,1003.67
2019-01-23T00:03:05.736Z,1003.66
2019-01-23T00:04:05.720Z,1003.64
2019-01-23T00:05:05.750Z,1003.6
2019-01-23T00:06:05.664Z,1003.54
2019-01-23T00:07:05.445Z,1003.58
2019-01-23T00:08:05.220Z,1003.54
2019-01-23T00:09:05.670Z,1003.55
2019-01-23T00:10:05.240Z,1003.56
2019-01-23T00:11:06.115Z,1003.55
2019-01-23T00:12:05.907Z,1003.53
2019-01-23T00:13:05.708Z,1003.57
2019-01-23T00:14:05.840Z,1003.58
2019-01-23T00:15:05.608Z,1003.58
2019-01-23T00:16:05.741Z,1003.53
2019-01-23T00:17:05.583Z,1003.57
2019-01-23T00:18:05.859Z,1003.56
2019-01-23T00:19:05.347Z,1003.54
2019-01-23T00:20:06.314Z,1003.52
2019-01-23T00:21:05.720Z,1003.51
2019-01-23T00:22:05.647Z,1003.48
2019-01-23T00:23:05.881Z,1003.47
2019-01-23T00:24:05.409Z,1003.48
2019-01-23T00:25:05.485Z,1003.46
2019-01-23T00:26:05.288Z,1003.5
2019-01-23T00:27:07.272Z,1003.46
2019-01-23T00:28:06.067Z,1003.47
2019-01-23T00:29:05.519Z,1003.47
2019-01-23T00:30:08.305Z,1003.44
2019-01-23T00:31:05.752Z,1003.46
2019-01-23T00:32:05.719Z,1003.42
2019-01-23T00:33:05.336Z,1003.34
2019-01-23T00:34:05.321Z,1003.34
2019-01-23T00:35:05.875Z,1003.36
2019-01-23T00:36:05.929Z,1003.36
2019-01-23T00:37:05.652Z,1003.34
2019-01-23T00:38:05.964Z,1003.35
2019-01-23T00:39:05.345Z,1003.32
2019-01-23T00:40:05.570Z,1003.28
2019-01-23T00:41:05.880Z,1003.34
2019-01-23T00:42:05.346Z,1003.32
2019-01-23T00:43:05.257Z,1003.31
2019-01-23T00:44:05.828Z,1003.31
2019-01-23T00:45:05.644Z,1003.28
2019-01-23T00:46:05.670Z,1003.25
2019-01-23T00:47:05.864Z,1003.27
2019-01-23T00:48:05.629Z,1003.23
2019-01-23T00:49:05.379Z,1003.2
2019-01-23T00:50:05.677Z,1003.2
2019-01-23T00:51:05.383Z,1003.18
2019-01-23T00:52:05.473Z,1003.2
2019-01-23T00:53:05.320Z,1003.18
2019-01-23T00:54:05.635Z,1003.15
2019-01-23T00:55:05.572Z,1003.21
2019-01-23T00:56:05.806Z,1003.2
2019-01-23T00:57:07.847Z,1003.18
2019-01-23T00:58:05.535Z,1003.17
2019-01-23T00:59:05.469Z,1003.13
2019-01-23T01:00:05.304Z,1003.15
2019-01-23T01:01:05.472Z,1003.13
2019-01-23T01:02:05.479Z,1003.1
2019-01-23T01:03:05.674Z,1003.09
2019-01-23T01:04:05.368Z,1003.08
2019-01-23T01:05:05.939Z,1003.08
2019-01-23T01:06:05.339Z,1003.04
2019-01-23T01:07:05.720Z,1003.06
2019-01-23T01:08:05.801Z,1003.04
2019-01-23T01:09:05.281Z,1003.02
2019-01-23T01:10:05.683Z,1003.03
2019-01-23T01:11:05.698Z,1003.03
2019-01-23T01:12:05.675Z,1003.01
2019-01-23T01:13:05.581Z,1003.02
2019-01-23T01:14:05.913Z,1003.01
2019-01-23T01:15:05.350Z,1003.07
2019-01-23T01:16:05.480Z,1003.01
2019-01-23T01:17:06.247Z,1003
2019-01-23T01:18:05.381Z,1003.03
2019-01-23T01:19:05.762Z,1003.02
2019-01-23T01:20:05.475Z,1003.02
2019-01-23T01:21:05.665Z,1003
2019-01-23T01:22:07.304Z,1003
2019-01-23T01:23:05.297Z,1002.96
2019-01-23T01:24:05.682Z,1002.98
2019-01-23T01:25:06.098Z,1002.96
2019-01-23T01:26:05.853Z,1002.93
2019-01-23T01:27:05.707Z,1002.88
2019-01-23T01:28:05.739Z,1002.87
2019-01-23T01:29:05.828Z,1002.85
2019-01-23T01:30:05.707Z,1002.86
2019-01-23T01:31:05.281Z,1002.89
2019-01-23T01:32:05.770Z,1002.87
2019-01-23T01:33:05.730Z,1002.86
2019-01-23T01:34:05.362Z,1002.88
2019-01-23T01:35:05.564Z,1002.84
2019-01-23T01:36:05.324Z,1002.84
2019-01-23T01:37:05.393Z,1002.88
2019-01-23T01:38:05.156Z,1002.88
2019-01-23T01:39:05.806Z,1002.84
2019-01-23T01:40:05.690Z,1002.85
2019-01-23T01:41:05.902Z,1002.83
2019-01-23T01:42:05.692Z,1002.83
2019-01-23T01:43:05.845Z,1002.81
2019-01-23T01:44:05.629Z,1002.79
2019-01-23T01:45:05.739Z,1002.81
2019-01-23T01:46:05.582Z,1002.75
2019-01-23T01:47:05.375Z,1002.74
2019-01-23T01:48:05.777Z,1002.72
2019-01-23T01:49:05.678Z,1002.71
2019-01-23T01:50:05.365Z,1002.66
2019-01-23T01:51:05.678Z,1002.63
2019-01-23T01:52:05.671Z,1002.67
2019-01-23T01:53:05.709Z,1002.66
2019-01-23T01:54:05.365Z,1002.62
2019-01-23T01:55:05.648Z,1002.6
2019-01-23T01:56:05.478Z,1002.6
2019-01-23T01:57:05.874Z,1002.56
2019-01-23T01:58:10.449Z,1002.55
2019-01-23T01:59:05.763Z,1002.53
2019-01-23T02:00:05.829Z,1002.54
2019-01-23T02:01:05.358Z,1002.52
2019-01-23T02:02:05.766Z,1002.51
2019-01-23T02:03:05.704Z,1002.53
2019-01-23T02:04:05.802Z,1002.51
2019-01-23T02:05:05.710Z,1002.47
2019-01-23T02:06:05.645Z,1002.48
2019-01-23T02:07:05.819Z,1002.5
2019-01-23T02:08:06.298Z,1002.47
2019-01-23T02:09:06.090Z,1002.46
2019-01-23T02:10:06.951Z,1002.46
2019-01-23T02:11:05.468Z,1002.43
2019-01-23T02:12:05.957Z,1002.44
2019-01-23T02:13:06.993Z,1002.44
2019-01-23T02:14:05.768Z,1002.41
2019-01-23T02:15:05.577Z,1002.42
2019-01-23T02:16:06.942Z,1002.4
2019-01-23T02:17:06.216Z,1002.35
2019-01-23T02:18:05.956Z,1002.37
2019-01-23T02:19:06.958Z,1002.36
2019-01-23T02:20:07.312Z,1002.34
2019-01-23T02:21:05.519Z,1002.31
2019-01-23T02:22:05.757Z,1002.32
2019-01-23T02:23:05.650Z,1002.25
2019-01-23T02:24:05.699Z,1002.24
2019-01-23T02:25:05.323Z,1002.24
2019-01-23T02:26:05.741Z,1002.22
2019-01-23T02:27:07.458Z,1002.23
2019-01-23T02:28:05.401Z,1002.24
2019-01-23T02:29:09.957Z,1002.23
2019-01-23T02:30:05.612Z,1002.2
2019-01-23T02:31:05.571Z,1002.18
2019-01-23T02:32:05.905Z,1002.21
2019-01-23T02:33:05.813Z,1002.16
2019-01-23T02:34:05.346Z,1002.18
2019-01-23T02:35:05.383Z,1002.18
2019-01-23T02:36:05.705Z,1002.19
2019-01-23T02:37:05.731Z,1002.19
2019-01-23T02:38:05.437Z,1002.19
2019-01-23T02:39:06.389Z,1002.18
2019-01-23T02:40:05.311Z,1002.22
2019-01-23T02:41:05.466Z,1002.19
2019-01-23T02:42:06.211Z,1002.17
2019-01-23T02:43:05.663Z,1002.17
2019-01-23T02:44:05.987Z,1002.12
2019-01-23T02:45:05.236Z,1002.13
2019-01-23T02:46:05.668Z,1002.09
2019-01-23T02:47:05.804Z,1002.07
2019-01-23T02:48:06.016Z,1002.03
2019-01-23T02:49:05.718Z,1002.02
2019-01-23T02:50:05.732Z,1001.98
2019-01-23T02:51:05.731Z,1001.96
2019-01-23T02:52:05.361Z,1001.94
2019-01-23T02:53:05.636Z,1001.94
2019-01-23T02:54:05.584Z,1001.92
2019-01-23T02:55:05.769Z,1001.97
2019-01-23T02:56:05.606Z,1001.92
2019-01-23T02:57:05.901Z,1001.92
2019-01-23T02:58:05.411Z,1001.93
2019-01-23T02:59:05.456Z,1001.92
2019-01-23T03:00:05.821Z,1001.92
2019-01-23T03:01:05.696Z,1001.88
2019-01-23T03:02:06.922Z,1001.89
2019-01-23T03:03:05.918Z,1001.86
2019-01-23T03:04:05.677Z,1001.85
2019-01-23T03:05:05.705Z,1001.83
2019-01-23T03:06:05.679Z,1001.86
2019-01-23T03:07:07.264Z,1001.79
2019-01-23T03:08:05.959Z,1001.8
2019-01-23T03:09:05.784Z,1001.75
2019-01-23T03:10:05.674Z,1001.75
2019-01-23T03:11:07.333Z,1001.72
2019-01-23T03:12:06.386Z,1001.67
2019-01-23T03:13:05.686Z,1001.67
2019-01-23T03:14:05.781Z,1001.67
2019-01-23T03:15:05.599Z,1001.62
2019-01-23T03:16:05.770Z,1001.61
2019-01-23T03:17:05.831Z,1001.64
2019-01-23T03:18:05.567Z,1001.58
2019-01-23T03:19:05.733Z,1001.58
2019-01-23T03:20:05.741Z,1001.56
2019-01-23T03:21:05.261Z,1001.54
2019-01-23T03:22:05.674Z,1001.51
2019-01-23T03:23:05.510Z,1001.56
2019-01-23T03:24:05.329Z,1001.53
2019-01-23T03:25:05.642Z,1001.55
2019-01-23T03:26:05.381Z,1001.52
2019-01-23T03:27:05.337Z,1001.51
2019-01-23T03:28:05.361Z,1001.52
2019-01-23T03:29:05.425Z,1001.53
2019-01-23T03:30:05.942Z,1001.54
2019-01-23T03:31:05.721Z,1001.53
2019-01-23T03:32:05.481Z,1001.52
2019-01-23T03:33:05.585Z,1001.49
2019-01-23T03:34:05.333Z,1001.52
2019-01-23T03:35:06.081Z,1001.49
2019-01-23T03:36:05.575Z,1001.47
2019-01-23T03:37:05.745Z,1001.48
2019-01-23T03:38:05.691Z,1001.46
2019-01-23T03:39:05.769Z,1001.49
2019-01-23T03:40:05.562Z,1001.42
2019-01-23T03:41:05.683Z,1001.43
2019-01-23T03:42:05.438Z,1001.42
2019-01-23T03:43:05.731Z,1001.41
2019-01-23T03:44:05.614Z,1001.39
2019-01-23T03:45:05.535Z,1001.38
2019-01-23T03:46:05.436Z,1001.41
2019-01-23T03:47:05.627Z,1001.37
2019-01-23T03:48:05.496Z,1001.35
2019-01-23T03:49:05.317Z,1001.37
2019-01-23T03:50:05.433Z,1001.33
2019-01-23T03:51:05.688Z,1001.31
2019-01-23T03:52:05.334Z,1001.31
2019-01-23T03:53:06.011Z,1001.32
2019-01-23T03:54:05.516Z,1001.31
2019-01-23T03:55:05.504Z,1001.29
2019-01-23T03:56:05.424Z,1001.31
2019-01-23T03:57:06.017Z,1001.3
2019-01-23T03:58:05.370Z,1001.28
2019-01-23T03:59:05.428Z,1001.3
2019-01-23T04:00:05.544Z,1001.28
2019-01-23T04:01:05.284Z,1001.28
2019-01-23T04:02:06.023Z,1001.27
2019-01-23T04:03:05.869Z,1001.31
2019-01-23T04:04:05.336Z,1001.27
2019-01-23T04:05:07.232Z,1001.28
2019-01-23T04:06:06.181Z,1001.28
2019-01-23T04:07:10.971Z,1001.24
2019-01-23T04:08:05.887Z,1001.27
2019-01-23T04:09:05.786Z,1001.26
2019-01-23T04:10:07.197Z,1001.24
2019-01-23T04:11:07.245Z,1001.23
2019-01-23T04:12:05.530Z,1001.26
2019-01-23T04:13:05.934Z,1001.25
2019-01-23T04:14:05.242Z,1001.23
2019-01-23T04:15:05.723Z,1001.24
2019-01-23T04:16:05.721Z,1001.23
2019-01-23T04:17:06.038Z,1001.23
2019-01-23T04:18:05.945Z,1001.21
2019-01-23T04:19:05.590Z,1001.2
2019-01-23T04:20:05.328Z,1001.15
2019-01-23T04:21:05.774Z,1001.17
2019-01-23T04:22:05.529Z,1001.2
2019-01-23T04:23:05.667Z,1001.17
2019-01-23T04:24:05.482Z,1001.15
2019-01-23T04:25:05.752Z,1001.17
2019-01-23T04:26:05.436Z,1001.13
2019-01-23T04:27:07.164Z,1001.14
2019-01-23T04:28:05.325Z,1001.14
2019-01-23T04:29:05.594Z,1001.15
2019-01-23T04:30:05.541Z,1001.12
2019-01-23T04:31:05.332Z,1001.11
2019-01-23T04:32:05.455Z,1001.16
2019-01-23T04:33:06.184Z,1001.16
2019-01-23T04:34:05.345Z,1001.11
2019-01-23T04:35:05.397Z,1001.14
2019-01-23T04:36:06.171Z,1001.13
2019-01-23T04:37:05.258Z,1001.13
2019-01-23T04:38:05.675Z,1001.11
2019-01-23T04:39:05.519Z,1001.08
2019-01-23T04:40:05.582Z,1001.08
2019-01-23T04:41:05.368Z,1001.05
2019-01-23T04:42:05.414Z,1001.04
2019-01-23T04:43:05.262Z,1001.03
2019-01-23T04:44:07.869Z,1001
2019-01-23T04:45:05.446Z,1001.02
2019-01-23T04:46:05.340Z,1000.98
2019-01-23T04:47:05.207Z,1000.99
2019-01-23T04:48:05.530Z,1000.95
2019-01-23T04:49:05.345Z,1000.96
2019-01-23T04:50:05.240Z,1000.97
2019-01-23T04:51:05.349Z,1000.95
2019-01-23T04:52:05.211Z,1000.94
2019-01-23T04:53:05.435Z,1000.92
2019-01-23T04:54:06.479Z,1000.89
2019-01-23T04:55:05.314Z,1000.92
2019-01-23T04:56:05.297Z,1000.9
2019-01-23T04:57:05.432Z,1000.88
2019-01-23T04:58:05.387Z,1000.88
2019-01-23T04:59:05.499Z,1000.87
2019-01-23T05:00:05.868Z,1000.87
2019-01-23T05:01:05.477Z,1000.89
2019-01-23T05:02:05.639Z,1000.84
2019-01-23T05:03:05.499Z,1000.86
2019-01-23T05:04:05.234Z,1000.81
2019-01-23T05:05:05.593Z,1000.82
2019-01-23T05:06:05.765Z,1000.83
2019-01-23T05:07:05.476Z,1000.8
2019-01-23T05:08:05.527Z,1000.78
2019-01-23T05:09:05.625Z,1001.06
2019-01-23T05:10:05.221Z,1000.77
2019-01-23T05:11:05.595Z,1000.74
2019-01-23T05:12:05.679Z,1000.72
2019-01-23T05:13:05.210Z,1000.69
2019-01-23T05:14:05.531Z,1000.7
2019-01-23T05:15:05.879Z,1000.66
2019-01-23T05:16:05.384Z,1000.7
2019-01-23T05:17:05.368Z,1000.7
2019-01-23T05:18:05.456Z,1000.65
2019-01-23T05:19:05.213Z,1000.66
2019-01-23T05:20:05.363Z,1000.65
2019-01-23T05:21:05.702Z,1000.62
2019-01-23T05:22:05.292Z,1000.63
2019-01-23T05:23:05.398Z,1000.64
2019-01-23T05:24:05.456Z,1000.62
2019-01-23T05:25:08.649Z,1000.6
2019-01-23T05:26:05.267Z,1000.62
2019-01-23T05:27:05.736Z,1000.6
2019-01-23T05:28:05.629Z,1000.64
2019-01-23T05:29:05.658Z,1000.64
2019-01-23T05:30:05.847Z,1000.56
2019-01-23T05:31:05.270Z,1000.57
2019-01-23T05:32:05.401Z,1000.54
2019-01-23T05:33:05.731Z,1000.56
2019-01-23T05:34:05.434Z,1000.54
2019-01-23T05:35:05.250Z,1000.55
2019-01-23T05:36:05.388Z,1000.5
2019-01-23T05:37:05.522Z,1000.5
2019-01-23T05:38:05.350Z,1000.49
2019-01-23T05:39:05.976Z,1000.48
2019-01-23T05:40:05.444Z,1000.49
2019-01-23T05:41:07.216Z,1000.45
2019-01-23T05:42:05.924Z,1000.46
2019-01-23T05:43:05.826Z,1000.45
2019-01-23T05:44:05.158Z,1000.43
2019-01-23T05:45:05.422Z,1000.43
2019-01-23T05:46:05.891Z,1000.42
2019-01-23T05:47:05.744Z,1000.36
2019-01-23T05:48:05.446Z,1000.4
2019-01-23T05:49:05.273Z,1000.38
2019-01-23T05:50:05.478Z,1000.34
2019-01-23T05:51:05.397Z,1000.33
2019-01-23T05:52:05.382Z,1000.33
2019-01-23T05:53:05.383Z,1000.34
2019-01-23T05:54:05.715Z,1000.38
2019-01-23T05:55:05.454Z,1000.35
2019-01-23T05:56:05.724Z,1000.36
2019-01-23T05:57:05.829Z,1000.38
2019-01-23T05:58:05.781Z,1000.39
2019-01-23T05:59:05.190Z,1000.35
2019-01-23T06:00:05.288Z,1000.36
2019-01-23T06:01:06.368Z,1000.36
2019-01-23T06:02:05.234Z,1000.28
2019-01-23T06:03:05.401Z,1000.29
2019-01-23T06:04:05.457Z,1000.26
2019-01-23T06:05:05.769Z,1000.3
2019-01-23T06:06:05.637Z,1000.27
2019-01-23T06:07:05.547Z,1000.27
2019-01-23T06:08:05.397Z,1000.25
2019-01-23T06:09:05.730Z,1000.26
2019-01-23T06:10:05.670Z,1000.27
2019-01-23T06:11:05.142Z,1000.28
2019-01-23T06:12:07.217Z,1000.27
2019-01-23T06:13:06.045Z,1000.24
2019-01-23T06:14:05.815Z,1000.25
2019-01-23T06:15:06.574Z,1000.25
2019-01-23T06:16:05.395Z,1000.25
2019-01-23T06:17:05.882Z,1000.21
2019-01-23T06:18:05.805Z,1000.23
2019-01-23T06:19:05.763Z,1000.19
2019-01-23T06:20:05.960Z,1000.18
2019-01-23T06:21:05.884Z,1000.18
2019-01-23T06:22:05.253Z,1000.19
2019-01-23T06:23:05.395Z,1000.18
2019-01-23T06:24:05.356Z,1000.19
2019-01-23T06:25:05.966Z,1000.18
2019-01-23T06:26:05.715Z,1000.18
2019-01-23T06:27:05.455Z,1000.15
2019-01-23T06:28:05.762Z,1000.18
2019-01-23T06:29:05.587Z,1000.17
2019-01-23T06:30:10.674Z,1000.18
2019-01-23T06:31:05.309Z,1000.2
2019-01-23T06:32:05.783Z,1000.19
2019-01-23T06:33:05.653Z,1000.25
2019-01-23T06:34:05.463Z,1000.23
2019-01-23T06:35:05.328Z,1000.22
2019-01-23T06:36:05.648Z,1000.23
2019-01-23T06:37:05.135Z,1000.24
2019-01-23T06:38:05.743Z,1000.23
2019-01-23T06:39:05.290Z,1000.27
2019-01-23T06:40:05.383Z,1000.25
2019-01-23T06:41:05.613Z,1000.24
2019-01-23T06:42:05.660Z,1000.26
2019-01-23T06:43:05.874Z,1000.24
2019-01-23T06:44:05.224Z,1000.24
2019-01-23T06:45:05.460Z,1000.23
2019-01-23T06:46:05.358Z,1000.26
2019-01-23T06:47:05.455Z,1000.25
2019-01-23T06:48:05.395Z,1000.2
2019-01-23T06:49:05.786Z,1000.18
2019-01-23T06:50:05.534Z,1000.17
2019-01-23T06:51:05.402Z,1000.18
2019-01-23T06:52:05.437Z,1000.16
2019-01-23T06:53:06.094Z,1000.14
2019-01-23T06:54:05.539Z,1000.19
2019-01-23T06:55:05.835Z,1000.17
2019-01-23T06:56:05.408Z,1000.12
2019-01-23T06:57:05.770Z,1000.12
2019-01-23T06:58:05.661Z,1000.15
2019-01-23T06:59:05.454Z,1000.13
2019-01-23T07:00:05.392Z,1000.14
2019-01-23T07:01:05.587Z,1000.11
2019-01-23T07:02:05.425Z,1000.16
2019-01-23T07:03:05.421Z,1000.16
2019-01-23T07:04:05.338Z,1000.15
2019-01-23T07:05:05.510Z,1000.18
2019-01-23T07:06:05.540Z,1000.18
2019-01-23T07:07:06.742Z,1000.15
2019-01-23T07:08:15.587Z,1000.16
2019-01-23T07:09:15.537Z,1000.13
2019-01-23T07:10:15.519Z,1000.09
2019-01-23T07:11:15.396Z,1000.07
2019-01-23T07:12:15.568Z,1000.04
2019-01-23T07:13:15.360Z,1000.06
2019-01-23T07:14:15.631Z,1000.05
2019-01-23T07:15:15.160Z,1000.03
2019-01-23T07:16:15.307Z,1000.04
2019-01-23T07:17:15.317Z,1000.03
2019-01-23T07:18:15.671Z,1000.08
2019-01-23T07:19:15.325Z,1000.04
2019-01-23T07:20:15.587Z,1000.01
2019-01-23T07:21:15.776Z,1000.04
2019-01-23T07:22:15.225Z,1000.06
2019-01-23T07:23:15.581Z,1000.07
2019-01-23T07:24:15.704Z,1000.03
2019-01-23T07:25:15.703Z,1000.06
2019-01-23T07:26:15.718Z,1000.04
2019-01-23T07:27:15.375Z,1000.03
2019-01-23T07:28:15.542Z,1000.01
2019-01-23T07:29:15.420Z,1000.04
2019-01-23T07:30:15.464Z,1000.01
2019-01-23T07:31:17.106Z,1000.01
2019-01-23T07:32:15.687Z,1000.01
2019-01-23T07:33:15.658Z,999.99
2019-01-23T07:34:15.933Z,1000.02
2019-01-23T07:35:15.687Z,999.98
2019-01-23T07:36:15.910Z,999.96
2019-01-23T07:37:15.796Z,999.98
2019-01-23T07:38:15.436Z,999.99
2019-01-23T07:39:15.676Z,999.96
2019-01-23T07:40:15.729Z,1000.02
2019-01-23T07:41:15.368Z,999.99
2019-01-23T07:42:15.546Z,999.98
2019-01-23T07:43:15.809Z,999.98
2019-01-23T07:44:15.644Z,999.96
2019-01-23T07:45:15.684Z,999.96
2019-01-23T07:46:15.409Z,999.94
2019-01-23T07:47:15.578Z,999.93
2019-01-23T07:48:17.174Z,999.96
2019-01-23T07:49:15.386Z,999.97
2019-01-23T07:50:15.701Z,999.93
2019-01-23T07:51:15.277Z,999.91
2019-01-23T07:52:15.675Z,999.89
2019-01-23T07:53:15.368Z,999.9
2019-01-23T07:54:16.310Z,999.85
2019-01-23T07:55:15.422Z,999.84
2019-01-23T07:56:15.273Z,999.89
2019-01-23T07:57:15.276Z,999.86
2019-01-23T07:58:15.816Z,999.83
2019-01-23T07:59:15.167Z,999.85
2019-01-23T08:00:15.887Z,999.83
2019-01-23T08:01:15.430Z,999.79
2019-01-23T08:02:15.797Z,999.79
2019-01-23T08:03:15.310Z,999.77
2019-01-23T08:04:17.009Z,999.8
2019-01-23T08:05:19.941Z,999.82
2019-01-23T08:06:15.501Z,999.81
2019-01-23T08:07:15.475Z,999.77
2019-01-23T08:08:15.502Z,999.77
2019-01-23T08:09:15.639Z,999.77
2019-01-23T08:10:15.938Z,999.77
2019-01-23T08:11:15.658Z,999.72
2019-01-23T08:12:15.814Z,999.72
2019-01-23T08:13:15.501Z,999.73
2019-01-23T08:14:15.247Z,999.74
2019-01-23T08:15:15.562Z,999.78
2019-01-23T08:16:15.339Z,999.72
2019-01-23T08:17:15.543Z,999.74
2019-01-23T08:18:15.902Z,999.75
2019-01-23T08:19:15.393Z,999.75
2019-01-23T08:20:15.334Z,999.73
2019-01-23T08:21:15.832Z,999.74
2019-01-23T08:22:15.412Z,999.76
2019-01-23T08:23:15.683Z,999.76
2019-01-23T08:24:15.343Z,999.79
2019-01-23T08:25:15.640Z,999.78
2019-01-23T08:26:15.607Z,999.77
2019-01-23T08:27:15.441Z,999.74
2019-01-23T08:28:15.162Z,999.8
2019-01-23T08:29:15.259Z,999.81
2019-01-23T08:30:15.488Z,999.81
2019-01-23T08:31:15.274Z,999.8
2019-01-23T08:32:15.500Z,999.83
2019-01-23T08:33:15.591Z,999.83
2019-01-23T08:34:15.746Z,999.84
2019-01-23T08:35:15.722Z,999.86
2019-01-23T08:36:17.240Z,999.86
2019-01-23T08:37:16.627Z,999.87
2019-01-23T08:38:15.317Z,999.86
2019-01-23T08:39:15.298Z,999.84
2019-01-23T08:40:15.672Z,999.86
2019-01-23T08:41:15.260Z,999.83
2019-01-23T08:42:15.766Z,999.86
2019-01-23T08:43:15.708Z,999.87
2019-01-23T08:44:15.465Z,999.84
2019-01-23T08:45:15.401Z,999.9
2019-01-23T08:46:15.579Z,999.86
2019-01-23T08:47:15.278Z,999.81
2019-01-23T08:48:15.291Z,999.81
2019-01-23T08:49:15.617Z,999.81
2019-01-23T08:50:15.244Z,999.78
2019-01-23T08:51:15.406Z,999.81
2019-01-23T08:52:15.639Z,999.82
2019-01-23T08:53:15.401Z,999.85
2019-01-23T08:54:15.429Z,999.83
2019-01-23T08:55:15.333Z,999.86
2019-01-23T08:56:15.662Z,999.87
2019-01-23T08:57:15.348Z,999.87
2019-01-23T08:58:15.417Z,999.88
2019-01-23T08:59:15.346Z,999.9
2019-01-23T09:00:15.305Z,999.87
2019-01-23T09:01:15.711Z,999.88
2019-01-23T09:02:15.146Z,999.9
2019-01-23T09:03:15.260Z,999.88
2019-01-23T09:04:15.310Z,999.89
2019-01-23T09:05:15.734Z,999.9
2019-01-23T09:06:15.633Z,999.92
2019-01-23T09:07:17.995Z,999.91
2019-01-23T09:08:15.743Z,999.94
2019-01-23T09:09:16.026Z,999.96
2019-01-23T09:10:15.687Z,999.93
2019-01-23T09:11:15.663Z,999.93
2019-01-23T09:12:16.813Z,999.93
2019-01-23T09:13:15.729Z,999.95
2019-01-23T09:14:15.270Z,999.93
2019-01-23T09:15:15.608Z,999.93
2019-01-23T09:16:15.920Z,999.95
2019-01-23T09:17:15.741Z,999.95
2019-01-23T09:18:15.596Z,999.94
2019-01-23T09:19:18.201Z,999.96
2019-01-23T09:20:15.633Z,999.98
2019-01-23T09:21:15.942Z,999.98
2019-01-23T09:22:15.310Z,999.99
2019-01-23T09:23:15.384Z,1000.02
2019-01-23T09:24:15.799Z,1000.03
2019-01-23T09:25:15.696Z,1000.03
2019-01-23T09:26:16.190Z,1000.01
2019-01-23T09:27:15.485Z,1000
2019-01-23T09:28:15.247Z,1000.03
2019-01-23T09:29:15.356Z,1000
2019-01-23T09:30:16.320Z,999.99
2019-01-23T09:31:15.168Z,1000.02
2019-01-23T09:32:15.350Z,1000.01
2019-01-23T09:33:15.407Z,1000.01
2019-01-23T09:34:15.835Z,999.99
2019-01-23T09:35:15.326Z,999.99
2019-01-23T09:36:15.758Z,999.98
2019-01-23T09:37:15.567Z,999.99
2019-01-23T09:38:15.525Z,1000
2019-01-23T09:39:16.299Z,999.99
2019-01-23T09:40:15.404Z,999.99
2019-01-23T09:41:15.495Z,999.99
2019-01-23T09:42:15.996Z,1000.02
2019-01-23T09:43:15.121Z,999.98
2019-01-23T09:44:15.309Z,999.97
2019-01-23T09:45:15.355Z,999.97
2019-01-23T09:46:15.446Z,999.96
2019-01-23T09:47:15.522Z,1000.05
2019-01-23T09:48:15.221Z,999.98
2019-01-23T09:49:15.439Z,999.97
2019-01-23T09:50:16.337Z,1000.01
2019-01-23T09:51:15.269Z,1000
2019-01-23T09:52:16.695Z,1000
2019-01-23T09:53:15.587Z,1000
2019-01-23T09:54:15.247Z,1000.02
2019-01-23T09:55:15.668Z,1000.04
2019-01-23T09:56:16.209Z,1000.03
2019-01-23T09:57:15.294Z,1000.03
2019-01-23T09:58:22.249Z,1000.03
2019-01-23T09:59:22.842Z,1000.03
2019-01-23T10:00:22.429Z,1000.05
2019-01-23T10:01:22.868Z,1000
2019-01-23T10:02:24.154Z,999.99
2019-01-23T10:03:23.372Z,1000.01
2019-01-23T10:04:22.707Z,999.94
2019-01-23T10:05:23.123Z,999.95
2019-01-23T10:06:22.604Z,999.92
2019-01-23T10:07:22.480Z,999.93
2019-01-23T10:08:22.773Z,999.91
2019-01-23T10:09:23.028Z,999.91
2019-01-23T10:10:22.987Z,999.91
2019-01-23T10:11:24.400Z,999.9
2019-01-23T10:12:23.723Z,999.87
2019-01-23T10:13:22.376Z,999.86
2019-01-23T10:14:22.853Z,999.9
2019-01-23T10:15:23.392Z,999.89
2019-01-23T10:16:22.715Z,999.83
2019-01-23T10:17:22.804Z,999.86
2019-01-23T10:18:22.310Z,999.86
2019-01-23T10:19:22.309Z,999.87
2019-01-23T10:20:22.594Z,999.88
2019-01-23T10:21:22.207Z,999.87
2019-01-23T10:22:22.443Z,999.87
2019-01-23T10:23:22.710Z,999.85
2019-01-23T10:24:22.248Z,999.9
2019-01-23T10:25:23.084Z,999.86
2019-01-23T10:26:22.244Z,999.89
2019-01-23T10:27:22.687Z,999.92
2019-01-23T10:28:22.411Z,999.9
2019-01-23T10:29:22.588Z,999.89
2019-01-23T10:30:22.369Z,999.89
2019-01-23T10:31:22.395Z,999.9
2019-01-23T10:32:22.908Z,999.93
2019-01-23T10:33:22.311Z,999.87
2019-01-23T10:34:22.259Z,999.82
2019-01-23T10:35:22.622Z,999.82
2019-01-23T10:36:22.650Z,999.85
2019-01-23T10:37:22.326Z,999.83
2019-01-23T10:38:22.447Z,999.87
2019-01-23T10:39:22.648Z,999.84
2019-01-23T10:40:22.572Z,999.84
2019-01-23T10:41:22.760Z,999.82
2019-01-23T10:42:22.500Z,999.83
2019-01-23T10:43:22.421Z,999.84
2019-01-23T10:44:22.689Z,999.82
2019-01-23T10:45:22.498Z,999.84
2019-01-23T10:46:22.405Z,999.86
2019-01-23T10:47:22.653Z,999.84
2019-01-23T10:48:22.628Z,999.81
2019-01-23T10:49:24.290Z,999.85
2019-01-23T10:50:22.404Z,999.83
2019-01-23T10:51:22.646Z,999.82
2019-01-23T10:52:22.684Z,999.83
2019-01-23T10:53:22.839Z,999.82
2019-01-23T10:54:22.361Z,999.81
2019-01-23T10:55:22.555Z,999.8
2019-01-23T10:56:22.655Z,999.85
2019-01-23T10:57:23.300Z,999.8
2019-01-23T10:58:22.423Z,999.77
2019-01-23T10:59:22.604Z,999.8
2019-01-23T11:00:22.210Z,999.78
2019-01-23T11:01:22.395Z,999.76
2019-01-23T11:02:22.925Z,999.78
2019-01-23T11:03:24.131Z,999.76
2019-01-23T11:04:23.250Z,999.76
2019-01-23T11:05:22.831Z,999.75
2019-01-23T11:06:22.476Z,999.76
2019-01-23T11:07:22.359Z,999.79
2019-01-23T11:08:24.359Z,999.77
2019-01-23T11:09:23.184Z,999.77
2019-01-23T11:10:22.418Z,999.75
2019-01-23T11:11:22.775Z,999.74
2019-01-23T11:12:22.279Z,999.79
2019-01-23T11:13:22.305Z,999.78
2019-01-23T11:14:23.012Z,999.81
2019-01-23T11:15:22.630Z,999.81
2019-01-23T11:16:24.108Z,999.79
2019-01-23T11:17:22.895Z,999.77
2019-01-23T11:18:22.725Z,999.78
2019-01-23T11:19:22.740Z,999.76
2019-01-23T11:20:22.747Z,999.77
2019-01-23T11:21:22.651Z,999.78
2019-01-23T11:22:22.668Z,999.77
2019-01-23T11:23:22.222Z,999.77
2019-01-23T11:24:22.999Z,999.78
2019-01-23T11:25:22.442Z,999.72
2019-01-23T11:26:22.679Z,999.75
2019-01-23T11:27:24.313Z,999.73
2019-01-23T11:28:22.740Z,999.75
2019-01-23T11:29:22.619Z,999.71
2019-01-23T11:30:22.649Z,999.72
2019-01-23T11:31:22.191Z,999.72
2019-01-23T11:32:22.941Z,999.7
2019-01-23T11:33:22.613Z,999.71
2019-01-23T11:34:22.305Z,999.71
2019-01-23T11:35:22.670Z,999.68
2019-01-23T11:36:22.312Z,999.7
2019-01-23T11:37:22.270Z,999.69
2019-01-23T11:38:22.349Z,999.69
2019-01-23T11:39:22.786Z,999.67
2019-01-23T11:40:22.897Z,999.7
2019-01-23T11:41:23.052Z,999.67
2019-01-23T11:42:22.304Z,999.68
2019-01-23T11:43:22.233Z,999.69
2019-01-23T11:44:23.528Z,999.74
2019-01-23T11:45:23.012Z,999.72
2019-01-23T11:46:22.825Z,999.74
2019-01-23T11:47:22.466Z,999.75
2019-01-23T11:48:22.530Z,999.75
2019-01-23T11:49:23.695Z,999.76
2019-01-23T11:50:23.329Z,999.73
2019-01-23T11:51:22.496Z,999.7
2019-01-23T11:52:22.986Z,999.72
2019-01-23T11:53:22.562Z,999.7
2019-01-23T11:54:22.318Z,999.66
2019-01-23T11:55:22.329Z,999.68
2019-01-23T11:56:22.381Z,999.65
2019-01-23T11:57:22.330Z,999.68
2019-01-23T11:58:22.510Z,999.67
2019-01-23T11:59:22.751Z,999.64
2019-01-23T12:00:23.008Z,999.65
2019-01-23T12:01:27.958Z,999.67
2019-01-23T12:02:22.528Z,999.67
2019-01-23T12:03:22.208Z,999.66
2019-01-23T12:04:22.294Z,999.67
2019-01-23T12:05:23.029Z,999.68
2019-01-23T12:06:24.851Z,999.69
2019-01-23T12:07:22.605Z,999.71
2019-01-23T12:08:22.989Z,999.71
2019-01-23T12:09:23.025Z,999.68
2019-01-23T12:10:22.898Z,999.67
2019-01-23T12:11:22.630Z,999.68
2019-01-23T12:12:22.765Z,999.68
2019-01-23T12:13:22.241Z,999.7
2019-01-23T12:14:22.677Z,999.68
2019-01-23T12:15:22.876Z,999.66
2019-01-23T12:16:22.883Z,999.7